Aeroporto :
LOGIN :

Iscrizione | Disclaimer

   EN    FR    IT 

 










Sommario :    VFR   VFR Marginale   IFR   IFR Intensivo   IFR Molto Intensivo
Visibilità : 
Base nubi : 
>= 8 km
>= 3000ft
5 / 8 km
1000 / 3000 ft
1500m / 5 km
500 / 1000 ft
800 / 1500m
200 / 500 ft
< 800m
< 200 ft
Simboli :   Temporali  Nebbia  Neve Forte  Precipitazioni Forti  Vento > 20 kt
SIGMETs :   Varie  Temporali  Ghiacco  Turbolenza  Onda orograficha  Ceneri Vulcaniche






- Altitudine del aeroporto : 142 ft
- Codice IATA : ALC


LEAL - Alicante

ULTIMO METAR :
  • 291400Z 11007KT 080V150 9999 FEW025 22/15 Q1025 NOSIG

METARs OBSOLETI :
  • 291330Z 12005KT 070V190 9999 FEW025 22/16 Q1025 NOSIG
  • 291300Z 12006KT 070V160 9999 FEW025 22/15 Q1026 NOSIG
  • 291230Z 12007KT 070V160 CAVOK 21/16 Q1026 NOSIG
  • 291200Z 09007KT 060V130 CAVOK 21/15 Q1027 NOSIG
  • 291130Z 09005KT 040V140 CAVOK 22/14 Q1027 NOSIG

TAF TAF LEAL
Valido dal 29 a 12 ore il 30 a 12 ore UTC


291100Z 2912/3012 09008KT CAVOK TX23/2912Z TN12/3005Z
BECMG 2915/2917 VRB04KT
PROB30
TEMPO 2918/3006 BKN010



MetMap, La meteo Aeronautica in un colpo d'occhio ! - Copyright ORBIFLY Dicembre 2007 - Disclaimer

ORBIFLY MET'MAP TEAM :

Programmazione e sviluppo : Alexandra Zaïnal
Concezione : Baudouin d'Aumeries
Aiuto per la programmazione : Marc-Olivier Méhu
Supporto tecnico e logistico : Manuel Goepfert
Aiuto per la traduzione : Arnaldo La Scala

Contatto : metmap@orbifly.com




FONTI E CREDITI :

   NOAA